KLKV/LKV METAR and TAF weather

Enter ICAO airport designator
Station Type Date Time Source
KLKV METAR 2020/09/20 11:53 UTC NOAA

KLKV 201153Z AUTO 00000KT 10SM CLR M01/M03 A3015 RMK AO2 SLP202 T10061028 10078 21006 57002 FZRANO $


Station Type Date Time Source
KLKV Decoded METAR 2020/09/20 11:53 UTC NOAA

Lakeview, Lake County Airport, OR, United States (KLKV) 42-10N 120-24W
Sep 20, 2020 - 07:53 AM EDT / 2020.09.20 1153 UTC
Wind: Calm:0
Visibility: 10 mile(s):0
Sky conditions: clear
Temperature: 30.9 F (-0.6 C)
Dew Point: 27.0 F (-2.8 C)
Relative Humidity: 85%
Pressure (altimeter): 30.15 in. Hg (1020 hPa)
Pressure tendency: 0.01 inches (0.2 hPa) lower than three hours ago
ob: KLKV 201153Z AUTO 00000KT 10SM CLR M01/M03 A3015 RMK AO2 SLP202 T10061028 10078 21006 57002 FZRANO
cycle: 12

Station Type Date Time Source
KLKV TAF UTC NOAA

Error!

Example: see airport list